• Join FlightAware (Why Join?)
  • Login
  • US Flag 
01:19PM EST


 

Airport Tracker/Info


-or-


 

Live Flight TrackerFlight Track Log ✈ EGF3994 ✈ 03-Jun-2013 ✈ KORD - KDAY

Flight Track Log - Related Links

Times and Time Zones

All times are in EDT time to prevent confusion due to time zone crossing. See the EGF3994 flight status page for this flight to view local times or setup timezone preferences in your user account.

Time Position Orientation Groundspeed Altitude Reporting Facility
EDT Latitude Longitude Course Direction KTS MPH feet Rate Location/Type
06:49PM 41.9333 -87.9167 90° East 173 199 2,000  Level Chicago TRACON
06:50PM 41.9167 -87.8667 114° Southeast 215 247 4,400 1,800 Climbing Chicago TRACON
06:50PM 41.9156 -87.8256 92° East 239 275 5,100 1,980 Climbing Chicago Center
06:51PM 41.9592 -87.4586 98° East  Level FlightAware Approximate
06:52PM 41.9462 -87.3123 95° East  Level FlightAware Approximate
06:52PM 41.9208 -87.7264 86° East 260 299 7,900  Level Chicago Center
06:53PM 41.9357 -87.1657 95° East  Level FlightAware Approximate
06:53PM 41.9244 -87.6200 87° East 281 323 10,200  Level Chicago Center
06:54PM 41.9333 -87.0185 90° East  Level FlightAware Approximate
06:54PM 41.9300 -87.4786 87° East 314 361 12,400  Level Chicago Center
06:55PM 41.9342 -87.3539 87° East 332 382 13,900 1,380 Climbing Chicago Center
06:56PM 41.9206 -87.2167 98° East 364 419 15,300 1,500 Climbing Chicago Center
06:57PM 41.9064 -87.0739 98° East 383 441 17,100 1,680 Climbing Chicago Center
06:58PM 41.8931 -86.9358 97° East 377 434 18,900 1,920 Climbing Chicago Center
06:59PM 41.8761 -86.7664 98° East 382 440 21,100 1,920 Climbing Chicago Center
07:00PM 41.8639 -86.6361 97° East 389 448 22,900 900 Climbing Chicago Center
07:01PM 41.8181 -86.4989 114° Southeast 420 483 23,000  Climbing Chicago Center
07:02PM 41.7369 -86.3686 130° Southeast 452 520 23,000  Level Chicago Center
07:03PM 41.6358 -86.2031 129° Southeast 478 550 23,000  Level Chicago Center
07:04PM 41.5503 -86.0622 129° Southeast 488 562 23,000  Level Chicago Center
07:05PM 41.4647 -85.9200 129° Southeast 495 570 23,000  Level Chicago Center
07:06PM 41.3817 -85.7839 129° Southeast 482 555 23,000  Level Chicago Center
07:07PM 41.2844 -85.6239 129° Southeast 471 542 23,000  Level Chicago Center
07:08PM 41.2031 -85.4908 129° Southeast 471 542 23,000 -60 Level Chicago Center
07:09PM 41.1225 -85.3639 130° Southeast 457 526 22,900 -1,080 Descending Chicago Center
07:10PM 41.0400 -85.2278 129° Southeast 472 543 20,800 -2,280 Descending Chicago Center
07:11PM 40.9633 -85.1022 129° Southeast 456 525 18,300 -2,400 Descending Chicago Center
07:12PM 40.8917 -84.9889 130° Southeast 416 479 15,900 -1,620 Descending Chicago Center
07:13PM 40.8078 -84.8561 130° Southeast 399 459 15,000 -480 Descending Chicago Center
07:14PM 40.7411 -84.7497 130° Southeast 383 441 15,000  Level Chicago Center
07:15PM 40.6686 -84.6378 130° Southeast 396 456 15,000 -360 Level Chicago Center
07:16PM 40.6231 -84.5675 130° Southeast 420 483 14,400 -1,080 Descending Indianapolis Center
07:17PM 40.5350 -84.4286 130° Southeast 420 483 13,200 -1,080 Descending Indianapolis Center
07:17PM 40.5003 -84.3747 130° Southeast 413 475 12,800 -1,020 Descending Indianapolis Center
07:18PM 40.4533 -84.3419 152° Southeast 390 449 12,200 -1,080 Descending Indianapolis Center
07:19PM 40.3886 -84.3294 172° South 363 418 11,600 -1,020 Descending Indianapolis Center
07:19PM 40.3494 -84.3217 171° South 374 430 11,200 -960 Descending Indianapolis Center
07:20PM 40.2564 -84.3128 176° South 342 394 10,200 -960 Descending Indianapolis Center
07:20PM 40.2261 -84.3156 184° South 289 333 9,900 -1,500 Descending Indianapolis Center
07:21PM 40.1778 -84.3186 183° South 286 329 8,700 -1,920 Descending Indianapolis Center
07:22PM 40.0978 -84.3217 182° South 284 327 6,700 -2,100 Descending Indianapolis Center
07:22PM 40.0642 -84.3211 179° South 278 320 5,900 -2,100 Descending Indianapolis Center
07:23PM 40.0075 -84.3242 182° South 270 311 4,400 -1,860 Descending Indianapolis Center